Time;durP1;ratioP1;P1;durP2;ratioP2;P2;SDS_P1;SDS_P2;PMS_P1;PMS_P2;Temp;Humidity;BMP_temperature;BMP_pressure;BME280_temperature;BME280_humidity;BME280_pressure;Samples;Min_cycle;Max_cycle;Signal;HPM_P1;HPM_P2
2023/10/05 00:02:04;;;;;;;5.20;1.65;;;;;;;9.57;100.00;99580.81;4172451;28;20244;-50
2023/10/05 00:04:07;;;;;;;5.70;1.58;;;;;;;9.60;100.00;99574.91;4174675;28;20208;-50
2023/10/05 00:06:23;;;;;;;0.90;0.90;;;;;;;9.64;100.00;99570.69;4174464;28;20323;-49
2023/10/05 00:08:25;;;;;;;2.13;1.58;;;;;;;9.60;100.00;99575.75;4185818;28;20226;-49
2023/10/05 00:10:27;;;;;;;1.70;1.60;;;;;;;9.56;100.00;99569.03;4186580;28;20214;-50
2023/10/05 00:12:30;;;;;;;2.25;2.15;;;;;;;9.56;100.00;99560.84;4174798;28;20349;-49
2023/10/05 00:14:33;;;;;;;2.58;1.15;;;;;;;9.53;100.00;99560.44;4172377;28;20251;-49
2023/10/05 00:16:36;;;;;;;2.22;1.48;;;;;;;9.50;100.00;99563.63;4172801;28;20228;-49
2023/10/05 00:18:39;;;;;;;1.77;1.65;;;;;;;9.54;100.00;99559.41;4186848;28;20273;-49
2023/10/05 00:20:41;;;;;;;1.58;1.48;;;;;;;9.54;100.00;99562.94;4186144;28;20215;-49
2023/10/05 00:22:43;;;;;;;1.88;1.58;;;;;;;9.54;100.00;99565.69;4175109;28;20330;-49
2023/10/05 00:24:47;;;;;;;2.45;2.10;;;;;;;9.55;100.00;99558.34;4175371;28;20208;-49
2023/10/05 00:26:49;;;;;;;1.85;1.58;;;;;;;9.52;100.00;99558.75;4173168;28;20741;-48
2023/10/05 00:31:11;;;;;;;4.65;1.40;;;;;;;9.42;100.00;99545.56;4177503;28;20269;-49
2023/10/05 00:33:13;;;;;;;1.08;1.08;;;;;;;9.43;100.00;99554.59;4177409;28;20254;-50
2023/10/05 00:35:24;;;;;;;1.50;1.33;;;;;;;9.42;100.00;99544.75;4166197;28;20204;-49
2023/10/05 00:37:26;;;;;;;1.35;1.27;;;;;;;9.42;100.00;99547.47;4167829;28;20237;-49
2023/10/05 00:39:31;;;;;;;1.45;1.35;;;;;;;9.45;100.00;99549.75;4173807;28;20224;-49
2023/10/05 00:41:33;;;;;;;1.73;1.17;;;;;;;9.43;100.00;99547.25;4173737;28;20268;-49
2023/10/05 00:43:35;;;;;;;1.88;1.40;;;;;;;9.45;100.00;99549.75;4174277;28;20644;-49
2023/10/05 00:45:38;;;;;;;1.20;1.10;;;;;;;9.40;100.00;99552.28;4173051;28;20212;-48
2023/10/05 00:47:42;;;;;;;1.48;1.38;;;;;;;9.42;100.00;99542.00;4171489;28;22451;-49
2023/10/05 00:49:57;;;;;;;2.42;2.22;;;;;;;9.37;100.00;99531.75;4172806;28;20255;-49
2023/10/05 00:54:16;;;;;;;1.70;1.55;;;;;;;9.31;100.00;99540.81;4174694;28;20203;-48
2023/10/05 00:56:22;;;;;;;1.45;1.42;;;;;;;9.27;100.00;99535.97;4173185;28;20772;-49
2023/10/05 00:58:34;;;;;;;2.47;1.90;;;;;;;9.26;100.00;99531.56;4171134;28;20669;-49
2023/10/05 01:00:48;;;;;;;2.17;1.85;;;;;;;9.27;100.00;99541.44;4185814;28;20211;-49
2023/10/05 01:05:25;;;;;;;2.13;1.60;;;;;;;9.23;100.00;99532.00;4174237;28;20666;-49
2023/10/05 01:09:56;;;;;;;2.30;1.90;;;;;;;9.24;100.00;99536.41;4174950;28;20203;-50
2023/10/05 01:14:16;;;;;;;2.58;1.50;;;;;;;9.22;100.00;99546.72;4173739;28;20908;-49
2023/10/05 01:16:19;;;;;;;2.13;1.92;;;;;;;9.23;100.00;99540.22;4171217;28;20355;-50
2023/10/05 01:18:25;;;;;;;1.25;1.15;;;;;;;9.17;100.00;99552.00;4173241;28;20631;-50
2023/10/05 01:20:28;;;;;;;13.25;2.35;;;;;;;9.19;100.00;99550.72;4171699;28;20226;-51
2023/10/05 01:22:36;;;;;;;1.75;1.65;;;;;;;9.11;100.00;99544.66;4171436;28;20694;-50
2023/10/05 01:24:38;;;;;;;1.75;1.65;;;;;;;9.06;100.00;99539.84;4174336;28;20775;-49
2023/10/05 01:26:41;;;;;;;1.80;1.58;;;;;;;9.07;100.00;99535.22;4172673;28;20223;-49
2023/10/05 01:28:42;;;;;;;1.83;1.35;;;;;;;9.07;100.00;99535.22;4169341;28;20279;-49
2023/10/05 01:30:44;;;;;;;1.33;1.23;;;;;;;9.06;100.00;99533.53;4175867;28;20212;-49
2023/10/05 01:32:47;;;;;;;1.92;1.77;;;;;;;9.07;100.00;99527.88;4174491;28;20597;-49
2023/10/05 01:34:49;;;;;;;1.58;1.48;;;;;;;8.98;100.00;99526.44;4168946;28;20201;-49
2023/10/05 01:36:53;;;;;;;2.10;1.23;;;;;;;8.98;100.00;99531.06;4187490;28;20277;-48
2023/10/05 01:39:01;;;;;;;2.00;1.77;;;;;;;8.99;100.00;99510.88;4173369;28;20808;-49
2023/10/05 01:41:07;;;;;;;2.38;2.03;;;;;;;9.09;100.00;99514.00;4155848;28;20218;-49
2023/10/05 01:43:10;;;;;;;1.58;1.23;;;;;;;9.11;100.00;99512.75;4171156;28;20669;-49
2023/10/05 01:45:22;;;;;;;1.35;1.30;;;;;;;8.93;100.00;99506.28;4171775;28;20204;-49
2023/10/05 01:47:24;;;;;;;1.23;1.23;;;;;;;8.80;100.00;99522.69;4173449;28;20577;-49
2023/10/05 01:49:25;;;;;;;2.67;2.47;;;;;;;8.82;100.00;99521.44;4172934;28;20725;-49
2023/10/05 01:51:28;;;;;;;6.78;1.77;;;;;;;8.89;100.00;99515.97;4155106;28;20208;-49
2023/10/05 01:53:32;;;;;;;2.10;1.92;;;;;;;8.92;100.00;99521.00;4171370;28;20340;-49
2023/10/05 01:55:35;;;;;;;3.15;1.58;;;;;;;8.92;100.00;99521.84;4172551;28;20215;-49
2023/10/05 01:57:37;;;;;;;3.75;1.70;;;;;;;8.96;100.00;99522.25;4171838;28;20216;-49
2023/10/05 01:59:40;;;;;;;2.10;2.00;;;;;;;8.98;100.00;99518.25;4171557;28;20207;-50
2023/10/05 02:01:41;;;;;;;2.50;1.75;;;;;;;9.05;100.00;99515.47;4172503;28;20226;-49
2023/10/05 02:03:44;;;;;;;1.98;1.75;;;;;;;9.04;100.00;99511.09;4172978;28;20753;-49
2023/10/05 02:05:47;;;;;;;1.83;1.67;;;;;;;9.02;100.00;99505.00;4171934;28;20231;-49
2023/10/05 02:07:50;;;;;;;1.58;1.48;;;;;;;9.03;100.00;99517.59;4169116;28;20216;-48
2023/10/05 02:09:53;;;;;;;5.55;1.20;;;;;;;9.05;100.00;99510.03;4172351;28;20208;-50
2023/10/05 02:12:01;;;;;;;2.72;1.63;;;;;;;9.03;100.00;99512.97;4172575;28;20243;-49
2023/10/05 02:14:04;;;;;;;2.67;2.03;;;;;;;9.03;100.00;99506.69;4185337;28;20577;-49
2023/10/05 02:16:13;;;;;;;1.73;1.55;;;;;;;8.99;100.00;99514.47;4172034;28;20285;-49
2023/10/05 02:18:24;;;;;;;4.10;1.80;;;;;;;8.98;100.00;99499.13;4157119;28;20204;-49
2023/10/05 02:20:38;;;;;;;2.35;1.77;;;;;;;8.97;100.00;99496.63;4172359;28;20235;-49
2023/10/05 02:22:44;;;;;;;1.58;1.15;;;;;;;8.93;100.00;99495.38;4172274;28;20634;-49
2023/10/05 02:24:46;;;;;;;3.20;1.45;;;;;;;8.89;100.00;99494.13;4173504;28;20207;-49
2023/10/05 02:28:57;;;;;;;2.28;2.08;;;;;;;8.89;100.00;99499.59;4176729;28;20281;-49
2023/10/05 02:31:00;;;;;;;2.13;1.92;;;;;;;8.86;100.00;99494.56;4175720;28;20712;-48
2023/10/05 02:33:04;;;;;;;1.65;1.52;;;;;;;8.81;100.00;99487.00;4175263;28;20234;-50
2023/10/05 02:37:40;;;;;;;1.75;1.65;;;;;;;8.79;100.00;99480.09;4142249;28;20208;-50
2023/10/05 02:39:41;;;;;;;2.85;1.42;;;;;;;8.76;100.00;99478.63;4172450;28;20208;-49
2023/10/05 02:41:43;;;;;;;1.15;1.10;;;;;;;8.83;100.00;99484.06;4153162;28;20205;-49
2023/10/05 02:43:52;;;;;;;3.70;1.73;;;;;;;8.80;100.00;99479.03;4170615;28;20204;-49
2023/10/05 02:46:09;;;;;;;1.30;1.25;;;;;;;8.76;100.00;99484.09;4151339;28;20230;-49
2023/10/05 02:48:11;;;;;;;2.22;1.67;;;;;;;8.79;100.00;99485.53;4166073;28;20697;-49
2023/10/05 02:50:13;;;;;;;2.10;1.48;;;;;;;8.79;100.00;99482.81;4172010;28;20677;-49
2023/10/05 02:52:16;;;;;;;2.10;2.00;;;;;;;8.81;100.00;99481.56;4170128;28;20262;-50
2023/10/05 02:54:22;;;;;;;1.90;1.15;;;;;;;8.84;100.00;99480.28;4153530;28;20319;-49
2023/10/05 02:56:27;;;;;;;1.85;1.73;;;;;;;8.83;100.00;99495.00;4173237;28;21229;-49
2023/10/05 02:58:29;;;;;;;1.85;1.73;;;;;;;8.85;100.00;99492.88;4172967;28;20212;-50
2023/10/05 03:00:34;;;;;;;3.13;1.52;;;;;;;8.86;100.00;99494.56;4166993;28;20648;-50
2023/10/05 03:02:45;;;;;;;1.77;1.67;;;;;;;8.83;100.00;99500.44;4188198;28;20214;-49
2023/10/05 03:04:48;;;;;;;1.77;1.63;;;;;;;8.83;100.00;99497.72;4156837;28;20205;-49
2023/10/05 03:06:52;;;;;;;3.22;2.30;;;;;;;8.80;100.00;99507.19;4173222;28;20224;-48
2023/10/05 03:08:58;;;;;;;2.38;1.83;;;;;;;8.78;100.00;99508.44;4172288;28;20196;-49
2023/10/05 03:10:59;;;;;;;2.70;2.35;;;;;;;8.78;100.00;99513.91;4175092;28;20288;-49
2023/10/05 03:13:03;;;;;;;2.17;1.80;;;;;;;8.74;100.00;99518.94;4173399;28;20293;-49
2023/10/05 03:15:07;;;;;;;3.38;2.03;;;;;;;8.74;100.00;99524.41;4171878;28;20246;-48
2023/10/05 03:17:13;;;;;;;4.30;2.20;;;;;;;8.72;100.00;99525.66;4173607;28;20698;-48
2023/10/05 03:19:20;;;;;;;2.38;1.85;;;;;;;8.81;100.00;99518.94;4175338;28;20243;-49
2023/10/05 03:21:22;;;;;;;2.15;1.98;;;;;;;8.80;100.00;99511.78;4191680;28;20204;-49
2023/10/05 03:23:24;;;;;;;3.05;2.70;;;;;;;8.77;100.00;99513.06;4174986;28;20799;-50
2023/10/05 03:25:26;;;;;;;6.28;1.80;;;;;;;8.74;100.00;99518.13;4173831;28;20212;-50
2023/10/05 03:27:28;;;;;;;4.30;2.08;;;;;;;8.71;100.00;99524.00;4174499;28;20557;-48
2023/10/05 03:29:35;;;;;;;4.30;3.15;;;;;;;8.73;100.00;99510.97;4176212;28;20203;-48
2023/10/05 03:32:04;;;;;;;11.15;3.30;;;;;;;8.72;100.00;99525.66;4175310;28;20208;-50
2023/10/05 03:34:07;;;;;;;2.13;1.83;;;;;;;8.69;100.00;99532.38;4173718;28;20228;-50
2023/10/05 03:36:16;;;;;;;2.65;2.05;;;;;;;8.73;100.00;99532.78;4171626;28;20266;-49
2023/10/05 03:38:19;;;;;;;8.57;1.95;;;;;;;8.73;100.00;99538.25;4174587;28;20208;-49
2023/10/05 03:40:27;;;;;;;2.45;2.08;;;;;;;8.78;100.00;99541.19;4174418;28;20761;-50
2023/10/05 03:42:29;;;;;;;7.97;3.13;;;;;;;8.89;100.00;99538.63;4173715;28;20207;-49
2023/10/05 03:44:31;;;;;;;3.10;2.78;;;;;;;8.61;100.00;99534.53;4171619;28;20208;-49
2023/10/05 03:46:36;;;;;;;8.02;2.97;;;;;;;8.51;100.00;99528.66;4173494;28;20728;-49
2023/10/05 03:48:38;;;;;;;2.67;2.28;;;;;;;8.55;100.00;99529.91;4173198;28;20208;-49
2023/10/05 03:50:40;;;;;;;3.25;2.90;;;;;;;8.48;100.00;99513.53;4166497;28;20204;-49
2023/10/05 03:52:44;;;;;;;3.28;2.38;;;;;;;8.34;100.00;99519.25;4171206;28;20216;-49
2023/10/05 03:54:46;;;;;;;2.80;2.35;;;;;;;8.28;100.00;99525.53;4174084;28;20693;-50
2023/10/05 03:57:04;;;;;;;5.38;2.58;;;;;;;8.25;100.00;99515.88;4174696;28;20227;-49
2023/10/05 03:59:06;;;;;;;2.28;2.08;;;;;;;8.23;100.00;99519.88;4173258;28;20200;-48
2023/10/05 04:01:11;;;;;;;6.45;2.47;;;;;;;8.22;100.00;99512.75;4156927;28;20547;-49
2023/10/05 04:03:14;;;;;;;2.67;2.25;;;;;;;8.36;100.00;99514.41;4174244;28;20254;-49
2023/10/05 04:05:20;;;;;;;6.78;2.25;;;;;;;8.45;100.00;99515.84;4175431;28;20616;-49
2023/10/05 04:07:22;;;;;;;3.15;2.85;;;;;;;8.55;100.00;99505.38;4172433;28;20232;-49
2023/10/05 04:09:28;;;;;;;4.47;2.05;;;;;;;8.56;100.00;99509.75;4173237;28;20780;-50
2023/10/05 04:11:33;;;;;;;2.40;1.77;;;;;;;8.50;100.00;99510.59;4173272;28;20196;-49
2023/10/05 04:13:35;;;;;;;3.40;3.20;;;;;;;8.52;100.00;99508.50;4171251;28;20290;-50
2023/10/05 04:15:39;;;;;;;2.05;1.90;;;;;;;8.63;100.00;99508.69;4173098;28;20656;-49
2023/10/05 04:17:43;;;;;;;3.45;2.03;;;;;;;8.46;100.00;99509.34;4173706;28;20298;-49
2023/10/05 04:19:46;;;;;;;2.72;1.58;;;;;;;8.59;100.00;99503.88;4168135;28;20208;-48
2023/10/05 04:21:48;;;;;;;2.20;1.98;;;;;;;8.59;100.00;99504.72;4173950;28;20596;-49
2023/10/05 04:23:50;;;;;;;3.15;2.33;;;;;;;8.63;100.00;99505.13;4155615;28;20756;-49
2023/10/05 04:25:56;;;;;;;2.90;2.70;;;;;;;8.65;100.00;99508.47;4171677;28;20632;-49
2023/10/05 04:27:58;;;;;;;2.25;2.05;;;;;;;8.64;100.00;99512.25;4175383;28;20644;-50
2023/10/05 04:30:00;;;;;;;2.30;2.03;;;;;;;8.72;100.00;99514.75;4178557;28;20208;-49
2023/10/05 04:32:03;;;;;;;2.90;2.35;;;;;;;8.72;100.00;99510.16;4176906;28;20359;-49
2023/10/05 04:34:06;;;;;;;1.15;1.15;;;;;;;8.72;100.00;99504.69;4176577;28;20263;-49
2023/10/05 04:36:11;;;;;;;3.13;1.38;;;;;;;8.77;100.00;99509.50;4190252;28;20928;-48
2023/10/05 04:38:13;;;;;;;3.80;2.03;;;;;;;8.83;100.00;99516.81;4103847;28;20256;-48
2023/10/05 04:40:16;;;;;;;4.18;3.63;;;;;;;8.83;100.00;99511.38;4147108;28;20304;-49
2023/10/05 04:42:18;;;;;;;1.50;1.40;;;;;;;8.87;100.00;99508.00;4175484;28;20262;-50
2023/10/05 04:44:20;;;;;;;1.92;1.83;;;;;;;8.82;100.00;99504.25;4175599;28;20218;-49
2023/10/05 04:46:23;;;;;;;2.20;2.03;;;;;;;8.85;100.00;99501.06;4173700;28;20243;-50
2023/10/05 04:48:26;;;;;;;1.55;1.45;;;;;;;8.83;100.00;99505.91;4171553;28;20685;-49
2023/10/05 04:50:28;;;;;;;1.67;1.58;;;;;;;8.77;100.00;99495.84;4171870;28;20211;-49
2023/10/05 04:52:33;;;;;;;1.92;1.73;;;;;;;8.76;100.00;99495.00;4174324;28;20291;-49
2023/10/05 04:54:38;;;;;;;4.88;2.15;;;;;;;8.78;100.00;99508.44;4172384;28;20227;-49
2023/10/05 05:01:15;;;;;;;1.90;1.73;;;;;;;8.82;100.00;99494.13;4160925;28;20246;-49
2023/10/05 05:03:34;;;;;;;2.38;1.33;;;;;;;8.82;100.00;99498.78;4171210;28;20323;-49
2023/10/05 05:07:57;;;;;;;1.70;1.50;;;;;;;8.79;100.00;99501.91;4173465;28;20301;-49
2023/10/05 05:09:59;;;;;;;1.88;1.77;;;;;;;8.80;100.00;99500.88;4165627;28;20204;-49
2023/10/05 05:12:09;;;;;;;3.13;2.40;;;;;;;8.76;100.00;99491.44;4186768;28;20203;-49
2023/10/05 05:14:12;;;;;;;3.00;2.13;;;;;;;8.75;100.00;99497.97;4166910;28;20322;-49
2023/10/05 05:16:17;;;;;;;2.50;2.30;;;;;;;8.75;100.00;99508.88;4170439;28;20286;-48
2023/10/05 05:18:19;;;;;;;1.42;1.33;;;;;;;8.76;100.00;99511.38;4164577;28;20211;-48
2023/10/05 05:20:21;;;;;;;3.33;2.00;;;;;;;8.72;100.00;99514.75;4153404;28;21309;-49
2023/10/05 05:22:23;;;;;;;1.77;1.67;;;;;;;8.70;100.00;99527.78;4172124;28;20216;-49
2023/10/05 05:24:29;;;;;;;2.15;1.75;;;;;;;8.72;100.00;99533.84;4167832;28;20204;-49
2023/10/05 05:26:31;;;;;;;2.20;2.00;;;;;;;8.70;100.00;99535.97;4170767;28;20238;-48
2023/10/05 05:28:34;;;;;;;1.75;1.65;;;;;;;8.69;100.00;99531.56;4170359;28;20333;-48
2023/10/05 05:30:36;;;;;;;2.33;2.13;;;;;;;8.65;100.00;99524.84;4171850;28;20251;-49
2023/10/05 05:32:39;;;;;;;2.42;2.22;;;;;;;8.61;100.00;99529.06;4169659;28;20309;-48
2023/10/05 05:34:42;;;;;;;3.25;2.13;;;;;;;8.61;100.00;99534.53;4182337;28;20227;-49
2023/10/05 05:36:44;;;;;;;2.35;1.70;;;;;;;8.54;100.00;99539.97;4186101;28;20642;-48
2023/10/05 05:38:47;;;;;;;2.70;2.17;;;;;;;8.62;100.00;99547.09;4169826;28;20208;-49
2023/10/05 05:40:53;;;;;;;2.30;1.95;;;;;;;8.54;100.00;99545.44;4171731;28;20702;-49
2023/10/05 05:42:56;;;;;;;2.63;2.42;;;;;;;8.53;100.00;99549.22;4168675;28;20265;-48
2023/10/05 05:44:58;;;;;;;1.98;1.88;;;;;;;8.66;100.00;99542.88;4169923;28;20680;-48
2023/10/05 05:47:08;;;;;;;2.53;2.33;;;;;;;8.57;100.00;99544.16;4169218;28;20251;-50
2023/10/05 05:49:10;;;;;;;1.77;1.67;;;;;;;8.57;100.00;99547.75;4169909;28;20261;-49
2023/10/05 05:51:15;;;;;;;1.80;1.70;;;;;;;8.56;100.00;99545.22;4169406;28;20259;-49
2023/10/05 05:53:16;;;;;;;1.92;1.77;;;;;;;8.61;100.00;99539.97;4154513;28;20243;-49
2023/10/05 05:55:20;;;;;;;2.90;2.47;;;;;;;8.67;100.00;99547.28;4187182;28;20227;-49
2023/10/05 05:57:23;;;;;;;2.08;1.98;;;;;;;8.54;100.00;99555.50;4171092;28;20211;-48
2023/10/05 05:59:25;;;;;;;2.50;2.35;;;;;;;8.37;100.00;99543.34;4166970;28;20295;-50
2023/10/05 06:01:27;;;;;;;2.80;2.28;;;;;;;8.32;100.00;99545.88;4171469;28;20320;-49
2023/10/05 06:03:29;;;;;;;1.67;1.55;;;;;;;8.46;100.00;99544.81;4173705;28;20204;-49
2023/10/05 06:05:30;;;;;;;4.25;2.67;;;;;;;8.39;100.00;99554.88;4173919;28;20249;-49
2023/10/05 06:07:32;;;;;;;2.35;2.15;;;;;;;8.22;100.00;99550.91;4172098;28;20257;-49
2023/10/05 06:09:34;;;;;;;1.75;1.35;;;;;;;8.39;100.00;99538.50;4171853;28;20212;-48
2023/10/05 06:11:35;;;;;;;2.72;2.47;;;;;;;8.36;100.00;99533.50;4173443;28;20208;-49
2023/10/05 06:13:37;;;;;;;2.47;2.25;;;;;;;8.35;100.00;99535.38;4171791;28;20216;-49
2023/10/05 06:15:40;;;;;;;2.00;1.85;;;;;;;8.17;100.00;99537.03;4166128;28;20224;-48
2023/10/05 06:17:43;;;;;;;3.33;2.25;;;;;;;8.28;100.00;99533.72;4156412;28;20209;-48
2023/10/05 06:19:47;;;;;;;2.55;1.90;;;;;;;8.27;100.00;99526.56;4171078;28;20210;-48
2023/10/05 06:21:49;;;;;;;5.93;2.67;;;;;;;8.19;100.00;99530.34;4170567;28;20215;-49
2023/10/05 06:23:51;;;;;;;16.38;2.75;;;;;;;8.19;100.00;99540.38;4171113;28;20287;-50
2023/10/05 06:25:53;;;;;;;3.45;3.25;;;;;;;8.21;100.00;99533.69;4169399;28;20235;-49
2023/10/05 06:27:55;;;;;;;4.10;2.08;;;;;;;8.36;100.00;99547.13;4147741;28;20231;-49
2023/10/05 06:29:56;;;;;;;4.72;3.17;;;;;;;8.37;100.00;99543.34;4149594;28;20201;-48
2023/10/05 06:32:00;;;;;;;3.42;2.75;;;;;;;8.44;100.00;99553.22;4173029;28;20208;-49
2023/10/05 06:34:09;;;;;;;3.38;2.60;;;;;;;8.41;100.00;99547.34;4186611;28;20223;-49
2023/10/05 06:36:11;;;;;;;2.67;1.95;;;;;;;8.32;100.00;99541.25;4175506;28;20230;-48
2023/10/05 06:38:18;;;;;;;2.72;2.53;;;;;;;8.35;100.00;99540.81;4176338;28;20207;-49
2023/10/05 06:40:23;;;;;;;2.15;1.98;;;;;;;8.48;100.00;99540.00;4176376;28;20200;-49
2023/10/05 06:42:26;;;;;;;2.33;2.03;;;;;;;8.38;100.00;99540.41;4177759;28;20543;-49
2023/10/05 06:44:28;;;;;;;2.28;1.88;;;;;;;8.55;100.00;99540.81;4170354;28;21183;-48
2023/10/05 06:46:36;;;;;;;3.08;2.28;;;;;;;8.55;100.00;99543.56;4178439;28;20255;-48
2023/10/05 06:48:40;;;;;;;4.07;2.10;;;;;;;8.67;100.00;99550.00;4178072;28;20212;-48
2023/10/05 06:50:43;;;;;;;2.33;2.10;;;;;;;8.86;100.00;99543.69;4177766;28;20290;-48
2023/10/05 06:52:53;;;;;;;1.90;1.80;;;;;;;8.94;100.00;99546.19;4179426;28;20200;-49
2023/10/05 06:54:54;;;;;;;3.42;1.88;;;;;;;8.96;100.00;99547.63;4162446;28;20224;-49
2023/10/05 06:56:57;;;;;;;3.58;2.28;;;;;;;8.99;100.00;99554.56;4180498;28;20259;-48
2023/10/05 06:59:00;;;;;;;2.70;2.30;;;;;;;9.08;100.00;99564.22;4195392;28;20203;-47
2023/10/05 07:01:02;;;;;;;1.73;1.63;;;;;;;9.21;100.00;99575.09;4178381;28;20211;-48
2023/10/05 07:03:10;;;;;;;2.03;1.92;;;;;;;9.24;100.00;99580.97;4172104;28;20648;-48
2023/10/05 07:05:13;;;;;;;5.22;2.33;;;;;;;9.39;100.00;99584.25;4170370;28;20211;-48
2023/10/05 07:07:16;;;;;;;2.05;1.95;;;;;;;9.42;100.00;99575.63;4172932;28;20227;-49
2023/10/05 07:09:18;;;;;;;2.78;2.58;;;;;;;9.45;100.00;99579.81;4179851;28;20270;-50
2023/10/05 07:11:24;;;;;;;2.67;2.55;;;;;;;9.47;100.00;99584.00;4162489;28;20287;-50
2023/10/05 07:13:28;;;;;;;4.15;2.30;;;;;;;9.53;100.00;99568.63;4176952;28;20278;-53
2023/10/05 07:15:30;;;;;;;2.83;2.15;;;;;;;9.63;100.00;99579.94;4177011;28;20756;-51
2023/10/05 07:17:32;;;;;;;1.98;1.80;;;;;;;9.66;100.00;99585.81;4175178;28;21064;-50
2023/10/05 07:19:35;;;;;;;5.35;2.75;;;;;;;9.79;100.00;99584.88;4181296;28;20269;-48
2023/10/05 07:21:38;;;;;;;3.45;2.13;;;;;;;9.85;100.00;99601.28;4177170;28;20278;-47
2023/10/05 07:23:41;;;;;;;2.80;2.60;;;;;;;9.95;100.00;99600.78;4150872;28;20207;-48
2023/10/05 07:25:43;;;;;;;2.85;2.45;;;;;;;10.08;100.00;99598.84;4178472;28;20665;-48
2023/10/05 07:27:45;;;;;;;1.95;1.85;;;;;;;10.24;100.00;99597.47;4176597;28;20243;-49
2023/10/05 07:29:47;;;;;;;2.05;1.58;;;;;;;10.25;100.00;99600.00;4178939;28;20212;-49
2023/10/05 07:31:52;;;;;;;3.33;2.45;;;;;;;10.32;100.00;99598.03;4178393;28;20306;-50
2023/10/05 07:33:57;;;;;;;4.15;1.75;;;;;;;10.23;100.00;99591.19;4169412;28;20209;-48
2023/10/05 07:35:59;;;;;;;3.47;2.63;;;;;;;10.44;100.00;99598.16;4174393;28;20224;-47
2023/10/05 07:38:04;;;;;;;1.95;1.85;;;;;;;10.55;100.00;99592.78;4178296;28;20589;-48
2023/10/05 07:40:13;;;;;;;2.38;2.17;;;;;;;10.61;100.00;99591.06;4178832;28;20222;-49
2023/10/05 07:42:16;;;;;;;5.90;1.85;;;;;;;10.81;100.00;99591.72;4162911;28;20287;-48
2023/10/05 07:44:18;;;;;;;1.92;1.83;;;;;;;11.04;100.00;99590.84;4178264;28;20295;-49
2023/10/05 07:46:20;;;;;;;2.33;2.13;;;;;;;11.23;100.00;99586.22;4178987;28;20219;-48
2023/10/05 07:48:22;;;;;;;2.30;1.70;;;;;;;11.44;100.00;99596.72;4160292;28;20215;-49
2023/10/05 07:50:25;;;;;;;1.77;1.67;;;;;;;11.52;100.00;99607.38;4177038;28;20215;-49
2023/10/05 07:52:27;;;;;;;2.78;2.15;;;;;;;11.52;100.00;99608.19;4177678;28;20214;-49
2023/10/05 07:54:38;;;;;;;6.30;2.22;;;;;;;11.70;100.00;99616.44;4161829;28;20232;-48
2023/10/05 07:56:39;;;;;;;2.83;2.10;;;;;;;11.64;100.00;99617.34;4177988;28;20242;-48
2023/10/05 07:58:44;;;;;;;6.55;2.65;;;;;;;11.39;100.00;99613.88;4178094;28;20208;-48
2023/10/05 08:00:47;;;;;;;1.52;1.10;;;;;;;11.53;100.00;99615.38;4162688;28;20209;-47
2023/10/05 08:02:49;;;;;;;5.80;2.03;;;;;;;11.41;100.00;99614.47;4178851;28;20684;-48
2023/10/05 08:04:51;;;;;;;1.85;1.48;;;;;;;11.45;100.00;99610.19;4156234;28;20203;-48
2023/10/05 08:06:54;;;;;;;2.53;2.08;;;;;;;11.51;100.00;99611.19;4178593;28;20661;-48
2023/10/05 08:08:56;;;;;;;1.30;1.20;;;;;;;11.55;100.00;99610.50;4162167;28;20215;-48
2023/10/05 08:10:59;;;;;;;2.63;1.83;;;;;;;11.37;100.00;99606.94;4178103;28;20200;-50
2023/10/05 08:13:03;;;;;;;2.00;1.85;;;;;;;11.45;100.00;99612.91;4169957;28;20200;-50
2023/10/05 08:15:06;;;;;;;2.60;1.92;;;;;;;11.68;100.00;99612.25;4178177;28;20690;-48
2023/10/05 08:17:08;;;;;;;4.20;1.67;;;;;;;12.07;100.00;99612.56;4158420;28;20256;-49
2023/10/05 08:19:10;;;;;;;2.13;1.95;;;;;;;12.66;100.00;99612.50;4178308;28;20226;-49
2023/10/05 08:21:15;;;;;;;3.80;3.47;;;;;;;13.01;100.00;99613.38;4178132;28;20200;-49
2023/10/05 08:23:20;;;;;;;7.22;2.95;;;;;;;13.49;100.00;99613.94;4178964;28;20202;-48
2023/10/05 08:25:22;;;;;;;1.60;1.50;;;;;;;13.49;98.31;99624.13;4181765;28;20279;-50
2023/10/05 08:27:25;;;;;;;3.38;1.48;;;;;;;13.55;97.38;99623.97;4175911;28;20207;-50
2023/10/05 08:29:32;;;;;;;1.17;1.08;;;;;;;14.02;94.99;99633.78;4157537;28;20208;-50
2023/10/05 08:31:34;;;;;;;4.07;2.10;;;;;;;14.27;92.58;99628.78;4159332;28;20224;-50
2023/10/05 08:33:40;;;;;;;5.32;2.45;;;;;;;14.34;95.31;99623.97;4178389;28;20227;-50
2023/10/05 08:35:43;;;;;;;2.72;1.95;;;;;;;14.57;91.10;99621.06;4157564;28;20251;-52
2023/10/05 08:37:52;;;;;;;6.00;2.20;;;;;;;13.77;90.96;99619.47;4176799;28;20285;-49
2023/10/05 08:39:56;;;;;;;1.63;1.52;;;;;;;13.83;93.86;99620.44;4177007;28;20196;-49
2023/10/05 08:42:03;;;;;;;1.13;1.02;;;;;;;14.48;92.46;99630.84;4175012;28;20204;-49
2023/10/05 08:44:42;;;;;;;2.15;1.23;;;;;;;14.91;90.16;99631.03;4179637;28;20596;-49
2023/10/05 08:46:41;;;;;;;2.28;2.08;;;;;;;14.71;88.33;99630.69;4175681;28;20652;-50
2023/10/05 08:48:46;;;;;;;2.35;1.55;;;;;;;14.76;92.33;99632.72;4169958;28;20219;-49
2023/10/05 08:50:55;;;;;;;2.13;1.92;;;;;;;15.22;86.38;99635.13;4178362;28;21575;-50
2023/10/05 08:52:56;;;;;;;1.90;1.27;;;;;;;15.56;83.82;99628.50;4176320;28;20560;-50
2023/10/05 08:54:58;;;;;;;3.50;1.75;;;;;;;15.39;86.13;99635.94;4169416;28;20270;-50
2023/10/05 08:57:09;;;;;;;2.28;1.23;;;;;;;15.17;86.46;99641.38;4175011;28;20720;-52
2023/10/05 08:59:26;;;;;;;2.80;1.40;;;;;;;14.77;87.70;99640.72;4161504;28;20255;-51
2023/10/05 09:01:45;;;;;;;3.72;1.75;;;;;;;15.56;90.34;99645.84;4176195;28;20211;-50
2023/10/05 09:03:53;;;;;;;2.70;1.25;;;;;;;15.39;87.80;99653.34;4177252;28;20294;-50
2023/10/05 09:06:20;;;;;;;1.98;1.08;;;;;;;15.82;86.89;99649.81;4176522;28;20230;-49
2023/10/05 09:08:22;;;;;;;3.45;1.60;;;;;;;16.35;84.70;99650.72;4167997;28;20205;-49
2023/10/05 09:10:26;;;;;;;4.03;1.85;;;;;;;16.67;82.95;99651.66;4177685;28;20212;-49
2023/10/05 09:12:36;;;;;;;1.30;1.15;;;;;;;17.35;82.24;99647.00;4178124;28;20214;-49
2023/10/05 09:14:38;;;;;;;3.55;1.63;;;;;;;16.83;80.10;99647.94;4175584;28;20220;-50
2023/10/05 09:16:41;;;;;;;2.17;1.30;;;;;;;17.20;79.15;99630.25;4178863;28;20236;-48
2023/10/05 09:18:49;;;;;;;3.40;1.27;;;;;;;17.64;75.20;99636.44;4178216;28;20219;-50
2023/10/05 09:20:55;;;;;;;1.02;0.93;;;;;;;17.46;77.04;99637.69;4169918;28;20665;-49
2023/10/05 09:23:06;;;;;;;2.97;1.60;;;;;;;17.73;76.63;99634.81;4173109;28;20214;-49
2023/10/05 09:25:15;;;;;;;1.60;1.40;;;;;;;17.70;75.33;99638.94;4168056;28;20753;-52
2023/10/05 09:27:19;;;;;;;1.85;1.48;;;;;;;17.25;76.78;99635.84;4168833;28;20220;-50
2023/10/05 09:29:32;;;;;;;1.63;1.05;;;;;;;16.98;76.67;99647.25;4175593;28;20294;-49
2023/10/05 09:31:36;;;;;;;7.40;1.67;;;;;;;16.57;77.71;99647.97;4171088;28;20206;-50
2023/10/05 09:33:53;;;;;;;1.77;1.40;;;;;;;16.19;79.08;99640.63;4176657;28;20208;-49
2023/10/05 09:36:06;;;;;;;4.93;1.70;;;;;;;16.01;82.97;99642.88;4176210;28;20227;-49
2023/10/05 09:38:11;;;;;;;1.92;1.30;;;;;;;16.39;81.34;99640.88;4169744;28;20201;-51
2023/10/05 09:40:16;;;;;;;4.78;1.45;;;;;;;16.75;80.35;99648.41;4159908;28;20204;-50
2023/10/05 09:42:25;;;;;;;1.90;1.15;;;;;;;17.25;79.23;99638.59;4160714;28;20201;-51
2023/10/05 09:44:31;;;;;;;4.63;1.73;;;;;;;17.30;75.28;99640.56;4174480;28;20200;-50
2023/10/05 09:46:34;;;;;;;1.88;1.70;;;;;;;17.40;76.50;99643.47;4151601;28;20256;-50
2023/10/05 09:48:38;;;;;;;1.98;0.95;;;;;;;17.65;74.87;99649.16;4191952;28;20203;-48
2023/10/05 09:50:48;;;;;;;1.60;0.98;;;;;;;17.90;75.31;99644.59;4175520;28;20254;-49
2023/10/05 09:52:51;;;;;;;5.68;2.17;;;;;;;18.47;72.27;99639.00;4154164;28;20291;-50
2023/10/05 09:54:53;;;;;;;3.78;1.67;;;;;;;18.72;71.54;99642.66;4176583;28;20208;-50
2023/10/05 09:56:55;;;;;;;1.80;1.63;;;;;;;18.51;70.56;99635.41;4161280;28;20313;-50
2023/10/05 09:58:59;;;;;;;2.90;1.30;;;;;;;18.06;70.54;99631.63;4175273;28;20673;-50
2023/10/05 10:01:10;;;;;;;3.40;1.63;;;;;;;17.91;70.86;99639.88;4177285;28;20991;-49
2023/10/05 10:03:17;;;;;;;6.07;1.13;;;;;;;17.81;70.45;99648.13;4174074;28;20204;-51
2023/10/05 10:05:30;;;;;;;4.70;1.15;;;;;;;17.39;70.73;99650.09;4175024;28;20234;-49
2023/10/05 10:07:36;;;;;;;5.28;2.83;;;;;;;17.32;72.31;99646.69;4175680;28;20223;-48
2023/10/05 10:09:39;;;;;;;4.75;1.33;;;;;;;17.60;71.60;99655.47;4158374;28;20287;-48